sensor_id;sensor_type;location;lat;lon;timestamp;P1;durP1;ratioP1;P2;durP2;ratioP2
12356;SDS011;6243;51.244;6.774;2024-01-11T00:00:58;27.33;;;16.87;;
12356;SDS011;6243;51.244;6.774;2024-01-11T00:03:23;26.83;;;16.80;;
12356;SDS011;6243;51.244;6.774;2024-01-11T00:05:49;26.20;;;15.47;;
12356;SDS011;6243;51.244;6.774;2024-01-11T00:08:14;26.53;;;15.40;;
12356;SDS011;6243;51.244;6.774;2024-01-11T00:10:40;26.77;;;15.80;;
12356;SDS011;6243;51.244;6.774;2024-01-11T00:13:05;26.77;;;16.70;;
12356;SDS011;6243;51.244;6.774;2024-01-11T00:15:32;26.67;;;16.57;;
12356;SDS011;6243;51.244;6.774;2024-01-11T00:17:58;25.97;;;16.07;;
12356;SDS011;6243;51.244;6.774;2024-01-11T00:20:23;27.90;;;16.57;;
12356;SDS011;6243;51.244;6.774;2024-01-11T00:22:49;27.57;;;15.43;;
12356;SDS011;6243;51.244;6.774;2024-01-11T00:25:14;26.20;;;16.37;;
12356;SDS011;6243;51.244;6.774;2024-01-11T00:27:43;26.53;;;16.80;;
12356;SDS011;6243;51.244;6.774;2024-01-11T00:30:08;28.17;;;16.40;;
12356;SDS011;6243;51.244;6.774;2024-01-11T00:32:35;27.60;;;16.73;;
12356;SDS011;6243;51.244;6.774;2024-01-11T00:35:01;31.33;;;17.27;;
12356;SDS011;6243;51.244;6.774;2024-01-11T00:37:27;29.50;;;16.73;;
12356;SDS011;6243;51.244;6.774;2024-01-11T00:39:52;27.43;;;16.77;;
12356;SDS011;6243;51.244;6.774;2024-01-11T00:42:17;27.93;;;16.33;;
12356;SDS011;6243;51.244;6.774;2024-01-11T00:44:43;30.57;;;16.87;;
12356;SDS011;6243;51.244;6.774;2024-01-11T00:47:08;29.10;;;17.03;;
12356;SDS011;6243;51.244;6.774;2024-01-11T00:49:35;23.43;;;15.47;;
12356;SDS011;6243;51.244;6.774;2024-01-11T00:52:01;29.87;;;17.40;;
12356;SDS011;6243;51.244;6.774;2024-01-11T00:54:26;27.93;;;16.17;;
12356;SDS011;6243;51.244;6.774;2024-01-11T00:56:52;28.57;;;17.43;;
12356;SDS011;6243;51.244;6.774;2024-01-11T00:59:17;26.33;;;17.30;;
12356;SDS011;6243;51.244;6.774;2024-01-11T01:01:46;27.37;;;15.90;;
12356;SDS011;6243;51.244;6.774;2024-01-11T01:04:12;26.43;;;17.10;;
12356;SDS011;6243;51.244;6.774;2024-01-11T01:06:39;25.83;;;16.57;;
12356;SDS011;6243;51.244;6.774;2024-01-11T01:09:05;28.63;;;16.90;;
12356;SDS011;6243;51.244;6.774;2024-01-11T01:11:31;29.80;;;16.27;;
12356;SDS011;6243;51.244;6.774;2024-01-11T01:13:56;28.60;;;17.17;;
12356;SDS011;6243;51.244;6.774;2024-01-11T01:16:22;27.30;;;16.10;;
12356;SDS011;6243;51.244;6.774;2024-01-11T01:18:47;30.00;;;16.30;;
12356;SDS011;6243;51.244;6.774;2024-01-11T01:21:13;27.30;;;16.53;;
12356;SDS011;6243;51.244;6.774;2024-01-11T01:23:40;29.63;;;17.33;;
12356;SDS011;6243;51.244;6.774;2024-01-11T01:26:06;28.73;;;17.70;;
12356;SDS011;6243;51.244;6.774;2024-01-11T01:28:32;29.50;;;16.67;;
12356;SDS011;6243;51.244;6.774;2024-01-11T01:30:57;26.30;;;16.60;;
12356;SDS011;6243;51.244;6.774;2024-01-11T01:33:23;27.13;;;17.07;;
12356;SDS011;6243;51.244;6.774;2024-01-11T01:35:48;27.87;;;16.83;;
12356;SDS011;6243;51.244;6.774;2024-01-11T01:38:14;27.27;;;17.20;;
12356;SDS011;6243;51.244;6.774;2024-01-11T01:40:41;30.13;;;16.77;;
12356;SDS011;6243;51.244;6.774;2024-01-11T01:43:06;30.43;;;17.13;;
12356;SDS011;6243;51.244;6.774;2024-01-11T01:45:32;26.50;;;16.47;;
12356;SDS011;6243;51.244;6.774;2024-01-11T01:47:58;28.23;;;17.47;;
12356;SDS011;6243;51.244;6.774;2024-01-11T01:50:23;27.67;;;16.97;;
12356;SDS011;6243;51.244;6.774;2024-01-11T01:52:49;27.97;;;15.97;;
12356;SDS011;6243;51.244;6.774;2024-01-11T01:55:15;28.33;;;17.03;;
12356;SDS011;6243;51.244;6.774;2024-01-11T01:57:42;30.10;;;17.93;;
12356;SDS011;6243;51.244;6.774;2024-01-11T02:00:10;29.07;;;17.33;;
12356;SDS011;6243;51.244;6.774;2024-01-11T02:02:36;28.93;;;16.23;;
12356;SDS011;6243;51.244;6.774;2024-01-11T02:05:03;29.60;;;15.93;;
12356;SDS011;6243;51.244;6.774;2024-01-11T02:07:30;30.80;;;18.87;;
12356;SDS011;6243;51.244;6.774;2024-01-11T02:09:55;28.13;;;16.70;;
12356;SDS011;6243;51.244;6.774;2024-01-11T02:12:21;29.50;;;17.00;;
12356;SDS011;6243;51.244;6.774;2024-01-11T02:14:49;28.63;;;17.40;;
12356;SDS011;6243;51.244;6.774;2024-01-11T02:17:15;29.87;;;17.57;;
12356;SDS011;6243;51.244;6.774;2024-01-11T02:19:40;28.27;;;17.77;;
12356;SDS011;6243;51.244;6.774;2024-01-11T02:22:08;31.93;;;17.57;;
12356;SDS011;6243;51.244;6.774;2024-01-11T02:24:39;29.27;;;17.37;;
12356;SDS011;6243;51.244;6.774;2024-01-11T02:27:05;27.40;;;16.83;;
12356;SDS011;6243;51.244;6.774;2024-01-11T02:29:31;32.77;;;18.33;;
12356;SDS011;6243;51.244;6.774;2024-01-11T02:31:57;29.20;;;17.70;;
12356;SDS011;6243;51.244;6.774;2024-01-11T02:34:23;28.67;;;18.50;;
12356;SDS011;6243;51.244;6.774;2024-01-11T02:36:50;31.50;;;17.30;;
12356;SDS011;6243;51.244;6.774;2024-01-11T02:39:16;28.37;;;17.87;;
12356;SDS011;6243;51.244;6.774;2024-01-11T02:41:46;30.70;;;17.87;;
12356;SDS011;6243;51.244;6.774;2024-01-11T02:44:13;30.00;;;17.93;;
12356;SDS011;6243;51.244;6.774;2024-01-11T02:46:38;29.47;;;18.87;;
12356;SDS011;6243;51.244;6.774;2024-01-11T02:49:04;38.20;;;19.60;;
12356;SDS011;6243;51.244;6.774;2024-01-11T02:51:29;29.37;;;18.47;;
12356;SDS011;6243;51.244;6.774;2024-01-11T02:53:55;30.53;;;17.93;;
12356;SDS011;6243;51.244;6.774;2024-01-11T02:56:20;30.90;;;19.00;;
12356;SDS011;6243;51.244;6.774;2024-01-11T02:58:47;32.03;;;18.53;;
12356;SDS011;6243;51.244;6.774;2024-01-11T03:01:12;34.43;;;18.47;;
12356;SDS011;6243;51.244;6.774;2024-01-11T03:03:38;33.33;;;18.23;;
12356;SDS011;6243;51.244;6.774;2024-01-11T03:06:03;29.67;;;19.13;;
12356;SDS011;6243;51.244;6.774;2024-01-11T03:08:29;32.33;;;19.40;;
12356;SDS011;6243;51.244;6.774;2024-01-11T03:10:55;28.50;;;18.17;;
12356;SDS011;6243;51.244;6.774;2024-01-11T03:13:20;28.33;;;17.93;;
12356;SDS011;6243;51.244;6.774;2024-01-11T03:15:47;31.73;;;19.00;;
12356;SDS011;6243;51.244;6.774;2024-01-11T03:18:12;32.13;;;19.10;;
12356;SDS011;6243;51.244;6.774;2024-01-11T03:20:38;32.97;;;19.33;;
12356;SDS011;6243;51.244;6.774;2024-01-11T03:23:03;30.97;;;18.70;;
12356;SDS011;6243;51.244;6.774;2024-01-11T03:25:29;32.93;;;18.73;;
12356;SDS011;6243;51.244;6.774;2024-01-11T03:27:55;32.13;;;18.67;;
12356;SDS011;6243;51.244;6.774;2024-01-11T03:30:20;35.57;;;20.90;;
12356;SDS011;6243;51.244;6.774;2024-01-11T03:32:47;31.07;;;19.57;;
12356;SDS011;6243;51.244;6.774;2024-01-11T03:35:12;30.57;;;19.70;;
12356;SDS011;6243;51.244;6.774;2024-01-11T03:37:38;33.27;;;20.30;;
12356;SDS011;6243;51.244;6.774;2024-01-11T03:40:04;33.33;;;18.47;;
12356;SDS011;6243;51.244;6.774;2024-01-11T03:42:30;33.00;;;20.03;;
12356;SDS011;6243;51.244;6.774;2024-01-11T03:44:56;35.10;;;21.07;;
12356;SDS011;6243;51.244;6.774;2024-01-11T03:47:21;34.00;;;19.53;;
12356;SDS011;6243;51.244;6.774;2024-01-11T03:49:48;32.77;;;19.77;;
12356;SDS011;6243;51.244;6.774;2024-01-11T03:52:13;33.27;;;19.67;;
12356;SDS011;6243;51.244;6.774;2024-01-11T03:54:39;36.43;;;19.20;;
12356;SDS011;6243;51.244;6.774;2024-01-11T03:57:05;34.53;;;20.87;;
12356;SDS011;6243;51.244;6.774;2024-01-11T03:59:30;35.27;;;20.53;;
12356;SDS011;6243;51.244;6.774;2024-01-11T04:01:57;32.97;;;20.67;;
12356;SDS011;6243;51.244;6.774;2024-01-11T04:04:23;33.57;;;19.40;;
12356;SDS011;6243;51.244;6.774;2024-01-11T04:06:50;33.30;;;20.00;;
12356;SDS011;6243;51.244;6.774;2024-01-11T04:09:16;36.33;;;20.20;;
12356;SDS011;6243;51.244;6.774;2024-01-11T04:11:41;35.67;;;20.23;;
12356;SDS011;6243;51.244;6.774;2024-01-11T04:14:07;33.40;;;20.37;;
12356;SDS011;6243;51.244;6.774;2024-01-11T04:16:32;33.50;;;20.43;;
12356;SDS011;6243;51.244;6.774;2024-01-11T04:18:58;30.90;;;19.67;;
12356;SDS011;6243;51.244;6.774;2024-01-11T04:21:24;35.87;;;20.00;;
12356;SDS011;6243;51.244;6.774;2024-01-11T04:23:52;34.43;;;20.33;;
12356;SDS011;6243;51.244;6.774;2024-01-11T04:26:17;38.63;;;21.53;;
12356;SDS011;6243;51.244;6.774;2024-01-11T04:28:43;34.40;;;20.33;;
12356;SDS011;6243;51.244;6.774;2024-01-11T04:31:09;34.63;;;20.37;;
12356;SDS011;6243;51.244;6.774;2024-01-11T04:33:34;35.83;;;21.10;;
12356;SDS011;6243;51.244;6.774;2024-01-11T04:36:00;33.30;;;20.87;;
12356;SDS011;6243;51.244;6.774;2024-01-11T04:38:25;35.97;;;20.40;;
12356;SDS011;6243;51.244;6.774;2024-01-11T04:40:52;34.70;;;20.57;;
12356;SDS011;6243;51.244;6.774;2024-01-11T04:43:18;34.80;;;20.17;;
12356;SDS011;6243;51.244;6.774;2024-01-11T04:45:43;34.57;;;20.60;;
12356;SDS011;6243;51.244;6.774;2024-01-11T04:48:09;34.20;;;19.90;;
12356;SDS011;6243;51.244;6.774;2024-01-11T04:50:34;34.67;;;21.30;;
12356;SDS011;6243;51.244;6.774;2024-01-11T04:53:00;35.13;;;21.17;;
12356;SDS011;6243;51.244;6.774;2024-01-11T04:55:25;34.40;;;20.10;;
12356;SDS011;6243;51.244;6.774;2024-01-11T04:57:52;30.90;;;20.20;;
12356;SDS011;6243;51.244;6.774;2024-01-11T05:00:18;35.63;;;20.40;;
12356;SDS011;6243;51.244;6.774;2024-01-11T05:02:43;38.30;;;20.77;;
12356;SDS011;6243;51.244;6.774;2024-01-11T05:05:09;33.17;;;20.80;;
12356;SDS011;6243;51.244;6.774;2024-01-11T05:07:34;35.10;;;20.07;;
12356;SDS011;6243;51.244;6.774;2024-01-11T05:10:00;34.60;;;20.83;;
12356;SDS011;6243;51.244;6.774;2024-01-11T05:12:25;40.17;;;22.23;;
12356;SDS011;6243;51.244;6.774;2024-01-11T05:14:52;35.30;;;21.03;;
12356;SDS011;6243;51.244;6.774;2024-01-11T05:17:18;34.30;;;20.57;;
12356;SDS011;6243;51.244;6.774;2024-01-11T05:19:43;35.77;;;19.33;;
12356;SDS011;6243;51.244;6.774;2024-01-11T05:22:09;39.63;;;22.27;;
12356;SDS011;6243;51.244;6.774;2024-01-11T05:24:34;38.43;;;21.70;;
12356;SDS011;6243;51.244;6.774;2024-01-11T05:27:00;37.43;;;20.27;;
12356;SDS011;6243;51.244;6.774;2024-01-11T05:29:25;36.37;;;20.33;;
12356;SDS011;6243;51.244;6.774;2024-01-11T05:31:52;35.97;;;20.80;;
12356;SDS011;6243;51.244;6.774;2024-01-11T05:34:17;34.40;;;20.97;;
12356;SDS011;6243;51.244;6.774;2024-01-11T05:36:43;34.20;;;19.90;;
12356;SDS011;6243;51.244;6.774;2024-01-11T05:39:08;36.97;;;21.23;;
12356;SDS011;6243;51.244;6.774;2024-01-11T05:41:34;35.73;;;20.70;;
12356;SDS011;6243;51.244;6.774;2024-01-11T05:43:59;33.27;;;21.43;;
12356;SDS011;6243;51.244;6.774;2024-01-11T05:46:25;32.37;;;19.83;;
12356;SDS011;6243;51.244;6.774;2024-01-11T05:48:52;36.37;;;20.80;;
12356;SDS011;6243;51.244;6.774;2024-01-11T05:51:17;34.37;;;20.73;;
12356;SDS011;6243;51.244;6.774;2024-01-11T05:53:43;39.30;;;20.17;;
12356;SDS011;6243;51.244;6.774;2024-01-11T05:56:08;37.77;;;21.47;;
12356;SDS011;6243;51.244;6.774;2024-01-11T05:58:34;37.30;;;20.63;;
12356;SDS011;6243;51.244;6.774;2024-01-11T06:01:00;34.60;;;20.30;;
12356;SDS011;6243;51.244;6.774;2024-01-11T06:03:25;36.87;;;20.77;;
12356;SDS011;6243;51.244;6.774;2024-01-11T06:05:52;33.83;;;20.17;;
12356;SDS011;6243;51.244;6.774;2024-01-11T06:08:17;33.07;;;19.40;;
12356;SDS011;6243;51.244;6.774;2024-01-11T06:10:43;36.80;;;20.90;;
12356;SDS011;6243;51.244;6.774;2024-01-11T06:13:08;35.50;;;20.53;;
12356;SDS011;6243;51.244;6.774;2024-01-11T06:15:34;34.40;;;21.37;;
12356;SDS011;6243;51.244;6.774;2024-01-11T06:17:59;34.43;;;20.73;;
12356;SDS011;6243;51.244;6.774;2024-01-11T06:20:25;37.03;;;21.60;;
12356;SDS011;6243;51.244;6.774;2024-01-11T06:22:52;34.10;;;20.47;;
12356;SDS011;6243;51.244;6.774;2024-01-11T06:25:17;35.23;;;21.17;;
12356;SDS011;6243;51.244;6.774;2024-01-11T06:27:43;36.67;;;21.13;;
12356;SDS011;6243;51.244;6.774;2024-01-11T06:30:09;37.87;;;20.93;;
12356;SDS011;6243;51.244;6.774;2024-01-11T06:32:35;34.27;;;19.70;;
12356;SDS011;6243;51.244;6.774;2024-01-11T06:35:00;34.97;;;22.10;;
12356;SDS011;6243;51.244;6.774;2024-01-11T06:37:26;35.33;;;21.13;;
12356;SDS011;6243;51.244;6.774;2024-01-11T06:39:53;38.37;;;21.17;;
12356;SDS011;6243;51.244;6.774;2024-01-11T06:42:18;35.17;;;20.13;;
12356;SDS011;6243;51.244;6.774;2024-01-11T06:44:44;34.17;;;21.43;;
12356;SDS011;6243;51.244;6.774;2024-01-11T06:47:09;34.43;;;21.10;;
12356;SDS011;6243;51.244;6.774;2024-01-11T06:49:37;36.43;;;20.53;;
12356;SDS011;6243;51.244;6.774;2024-01-11T06:52:03;36.13;;;20.87;;
12356;SDS011;6243;51.244;6.774;2024-01-11T06:54:29;37.77;;;21.27;;
12356;SDS011;6243;51.244;6.774;2024-01-11T06:56:56;37.53;;;20.80;;
12356;SDS011;6243;51.244;6.774;2024-01-11T06:59:21;39.17;;;21.17;;
12356;SDS011;6243;51.244;6.774;2024-01-11T07:01:47;35.03;;;20.53;;
12356;SDS011;6243;51.244;6.774;2024-01-11T07:04:12;36.63;;;21.50;;
12356;SDS011;6243;51.244;6.774;2024-01-11T07:06:38;34.37;;;20.97;;
12356;SDS011;6243;51.244;6.774;2024-01-11T07:09:03;37.80;;;21.63;;
12356;SDS011;6243;51.244;6.774;2024-01-11T07:11:29;36.37;;;21.00;;
12356;SDS011;6243;51.244;6.774;2024-01-11T07:13:55;38.63;;;21.43;;
12356;SDS011;6243;51.244;6.774;2024-01-11T07:16:21;39.37;;;22.13;;
12356;SDS011;6243;51.244;6.774;2024-01-11T07:18:46;37.27;;;21.77;;
12356;SDS011;6243;51.244;6.774;2024-01-11T07:21:12;33.23;;;19.90;;
12356;SDS011;6243;51.244;6.774;2024-01-11T07:23:37;33.50;;;20.53;;
12356;SDS011;6243;51.244;6.774;2024-01-11T07:26:03;39.60;;;21.60;;
12356;SDS011;6243;51.244;6.774;2024-01-11T07:28:29;36.17;;;20.63;;
12356;SDS011;6243;51.244;6.774;2024-01-11T07:30:56;35.10;;;21.90;;
12356;SDS011;6243;51.244;6.774;2024-01-11T07:33:21;34.33;;;21.47;;
12356;SDS011;6243;51.244;6.774;2024-01-11T07:35:47;36.07;;;21.13;;
12356;SDS011;6243;51.244;6.774;2024-01-11T07:38:12;33.40;;;20.93;;
12356;SDS011;6243;51.244;6.774;2024-01-11T07:40:38;35.90;;;21.07;;
12356;SDS011;6243;51.244;6.774;2024-01-11T07:43:04;35.77;;;21.00;;
12356;SDS011;6243;51.244;6.774;2024-01-11T07:45:29;32.97;;;20.13;;
12356;SDS011;6243;51.244;6.774;2024-01-11T07:47:56;40.37;;;19.90;;
12356;SDS011;6243;51.244;6.774;2024-01-11T07:50:21;35.77;;;20.63;;
12356;SDS011;6243;51.244;6.774;2024-01-11T07:52:47;34.23;;;20.30;;
12356;SDS011;6243;51.244;6.774;2024-01-11T07:55:13;36.03;;;20.40;;
12356;SDS011;6243;51.244;6.774;2024-01-11T07:57:38;30.90;;;20.40;;
12356;SDS011;6243;51.244;6.774;2024-01-11T08:00:05;39.90;;;21.67;;
12356;SDS011;6243;51.244;6.774;2024-01-11T08:02:31;35.80;;;20.60;;
12356;SDS011;6243;51.244;6.774;2024-01-11T08:04:58;35.07;;;20.67;;
12356;SDS011;6243;51.244;6.774;2024-01-11T08:07:23;33.33;;;20.23;;
12356;SDS011;6243;51.244;6.774;2024-01-11T08:09:49;36.53;;;22.33;;
12356;SDS011;6243;51.244;6.774;2024-01-11T08:12:15;37.87;;;22.77;;
12356;SDS011;6243;51.244;6.774;2024-01-11T08:14:40;35.33;;;21.00;;
12356;SDS011;6243;51.244;6.774;2024-01-11T08:17:06;36.13;;;21.53;;
12356;SDS011;6243;51.244;6.774;2024-01-11T08:19:31;36.57;;;20.10;;
12356;SDS011;6243;51.244;6.774;2024-01-11T08:21:58;36.17;;;20.53;;
12356;SDS011;6243;51.244;6.774;2024-01-11T08:24:23;36.27;;;20.87;;
12356;SDS011;6243;51.244;6.774;2024-01-11T08:26:49;36.37;;;20.57;;
12356;SDS011;6243;51.244;6.774;2024-01-11T08:29:14;37.60;;;19.73;;
12356;SDS011;6243;51.244;6.774;2024-01-11T08:31:40;37.83;;;21.50;;
12356;SDS011;6243;51.244;6.774;2024-01-11T08:34:05;34.73;;;21.07;;
12356;SDS011;6243;51.244;6.774;2024-01-11T08:36:31;34.50;;;21.87;;
12356;SDS011;6243;51.244;6.774;2024-01-11T08:38:58;37.63;;;21.63;;
12356;SDS011;6243;51.244;6.774;2024-01-11T08:41:24;37.37;;;21.20;;
12356;SDS011;6243;51.244;6.774;2024-01-11T08:43:49;34.27;;;20.87;;
12356;SDS011;6243;51.244;6.774;2024-01-11T08:46:22;33.20;;;20.67;;
12356;SDS011;6243;51.244;6.774;2024-01-11T08:48:49;33.80;;;20.10;;
12356;SDS011;6243;51.244;6.774;2024-01-11T08:51:14;37.60;;;22.13;;
12356;SDS011;6243;51.244;6.774;2024-01-11T08:53:40;36.27;;;21.53;;
12356;SDS011;6243;51.244;6.774;2024-01-11T08:56:06;33.47;;;20.53;;
12356;SDS011;6243;51.244;6.774;2024-01-11T08:58:32;38.67;;;22.90;;
12356;SDS011;6243;51.244;6.774;2024-01-11T09:00:57;37.10;;;22.33;;
12356;SDS011;6243;51.244;6.774;2024-01-11T09:03:23;37.60;;;21.33;;
12356;SDS011;6243;51.244;6.774;2024-01-11T09:05:48;39.10;;;22.20;;
12356;SDS011;6243;51.244;6.774;2024-01-11T09:08:14;36.60;;;21.43;;
12356;SDS011;6243;51.244;6.774;2024-01-11T09:10:39;38.80;;;22.03;;
12356;SDS011;6243;51.244;6.774;2024-01-11T09:13:06;37.83;;;21.83;;
12356;SDS011;6243;51.244;6.774;2024-01-11T09:15:32;36.80;;;21.03;;
12356;SDS011;6243;51.244;6.774;2024-01-11T09:17:58;35.87;;;22.23;;
12356;SDS011;6243;51.244;6.774;2024-01-11T09:20:23;36.03;;;21.63;;
12356;SDS011;6243;51.244;6.774;2024-01-11T09:22:49;41.43;;;22.57;;
12356;SDS011;6243;51.244;6.774;2024-01-11T09:25:14;34.47;;;22.00;;
12356;SDS011;6243;51.244;6.774;2024-01-11T09:27:40;41.03;;;22.80;;
12356;SDS011;6243;51.244;6.774;2024-01-11T09:30:07;36.60;;;23.07;;
12356;SDS011;6243;51.244;6.774;2024-01-11T09:32:33;36.53;;;22.80;;
12356;SDS011;6243;51.244;6.774;2024-01-11T09:34:59;39.67;;;23.23;;
12356;SDS011;6243;51.244;6.774;2024-01-11T09:37:24;36.30;;;23.60;;
12356;SDS011;6243;51.244;6.774;2024-01-11T09:39:50;38.07;;;23.53;;
12356;SDS011;6243;51.244;6.774;2024-01-11T09:42:15;37.97;;;23.93;;
12356;SDS011;6243;51.244;6.774;2024-01-11T09:44:41;39.73;;;22.97;;
12356;SDS011;6243;51.244;6.774;2024-01-11T09:47:08;36.30;;;22.17;;
12356;SDS011;6243;51.244;6.774;2024-01-11T09:49:35;38.43;;;21.83;;
12356;SDS011;6243;51.244;6.774;2024-01-11T09:52:01;36.80;;;22.77;;
12356;SDS011;6243;51.244;6.774;2024-01-11T09:54:27;35.80;;;22.30;;
12356;SDS011;6243;51.244;6.774;2024-01-11T09:56:53;37.63;;;23.20;;
12356;SDS011;6243;51.244;6.774;2024-01-11T09:59:20;37.60;;;21.40;;
12356;SDS011;6243;51.244;6.774;2024-01-11T10:01:46;42.20;;;21.80;;
12356;SDS011;6243;51.244;6.774;2024-01-11T10:04:13;38.47;;;22.70;;
12356;SDS011;6243;51.244;6.774;2024-01-11T10:06:40;37.13;;;22.20;;
12356;SDS011;6243;51.244;6.774;2024-01-11T10:09:06;34.10;;;21.93;;
12356;SDS011;6243;51.244;6.774;2024-01-11T10:11:32;38.10;;;23.17;;
12356;SDS011;6243;51.244;6.774;2024-01-11T10:13:58;34.83;;;22.73;;
12356;SDS011;6243;51.244;6.774;2024-01-11T10:16:23;34.50;;;21.70;;
12356;SDS011;6243;51.244;6.774;2024-01-11T10:18:49;40.70;;;24.33;;
12356;SDS011;6243;51.244;6.774;2024-01-11T10:21:19;37.97;;;23.83;;
12356;SDS011;6243;51.244;6.774;2024-01-11T10:23:45;34.63;;;22.90;;
12356;SDS011;6243;51.244;6.774;2024-01-11T10:26:10;38.50;;;23.33;;
12356;SDS011;6243;51.244;6.774;2024-01-11T10:28:36;35.80;;;21.77;;
12356;SDS011;6243;51.244;6.774;2024-01-11T10:31:01;36.97;;;21.87;;
12356;SDS011;6243;51.244;6.774;2024-01-11T10:33:28;36.10;;;22.47;;
12356;SDS011;6243;51.244;6.774;2024-01-11T10:35:54;33.53;;;22.27;;
12356;SDS011;6243;51.244;6.774;2024-01-11T10:38:21;34.73;;;22.93;;
12356;SDS011;6243;51.244;6.774;2024-01-11T10:40:50;35.43;;;22.23;;
12356;SDS011;6243;51.244;6.774;2024-01-11T10:43:19;38.10;;;23.17;;
12356;SDS011;6243;51.244;6.774;2024-01-11T10:45:47;35.13;;;21.87;;
12356;SDS011;6243;51.244;6.774;2024-01-11T10:48:14;37.43;;;21.70;;
12356;SDS011;6243;51.244;6.774;2024-01-11T10:50:42;34.53;;;23.17;;
12356;SDS011;6243;51.244;6.774;2024-01-11T10:53:12;34.77;;;22.30;;
12356;SDS011;6243;51.244;6.774;2024-01-11T10:55:43;30.90;;;21.77;;
12356;SDS011;6243;51.244;6.774;2024-01-11T10:58:09;36.07;;;22.40;;
12356;SDS011;6243;51.244;6.774;2024-01-11T11:00:36;38.70;;;23.97;;
12356;SDS011;6243;51.244;6.774;2024-01-11T11:03:02;37.97;;;23.77;;
12356;SDS011;6243;51.244;6.774;2024-01-11T11:05:30;38.87;;;24.27;;
12356;SDS011;6243;51.244;6.774;2024-01-11T11:08:01;34.77;;;24.30;;
12356;SDS011;6243;51.244;6.774;2024-01-11T11:10:27;36.77;;;24.73;;
12356;SDS011;6243;51.244;6.774;2024-01-11T11:12:54;38.07;;;24.10;;
12356;SDS011;6243;51.244;6.774;2024-01-11T11:15:20;38.63;;;23.43;;
12356;SDS011;6243;51.244;6.774;2024-01-11T11:17:48;37.07;;;24.73;;
12356;SDS011;6243;51.244;6.774;2024-01-11T11:20:15;37.10;;;23.87;;
12356;SDS011;6243;51.244;6.774;2024-01-11T11:22:41;40.03;;;25.73;;
12356;SDS011;6243;51.244;6.774;2024-01-11T11:25:08;35.57;;;23.73;;
12356;SDS011;6243;51.244;6.774;2024-01-11T11:27:34;40.97;;;24.87;;
12356;SDS011;6243;51.244;6.774;2024-01-11T11:30:01;39.40;;;24.47;;
12356;SDS011;6243;51.244;6.774;2024-01-11T11:32:37;43.33;;;24.70;;
12356;SDS011;6243;51.244;6.774;2024-01-11T11:35:03;38.77;;;24.80;;
12356;SDS011;6243;51.244;6.774;2024-01-11T11:37:30;38.77;;;24.67;;
12356;SDS011;6243;51.244;6.774;2024-01-11T11:39:55;37.83;;;24.97;;
12356;SDS011;6243;51.244;6.774;2024-01-11T11:42:22;37.13;;;23.50;;
12356;SDS011;6243;51.244;6.774;2024-01-11T11:44:48;38.60;;;23.93;;
12356;SDS011;6243;51.244;6.774;2024-01-11T11:47:21;38.60;;;23.90;;
12356;SDS011;6243;51.244;6.774;2024-01-11T11:49:57;41.60;;;24.97;;
12356;SDS011;6243;51.244;6.774;2024-01-11T11:52:28;34.83;;;22.67;;
12356;SDS011;6243;51.244;6.774;2024-01-11T11:54:54;35.23;;;22.83;;
12356;SDS011;6243;51.244;6.774;2024-01-11T11:57:21;37.60;;;25.27;;
12356;SDS011;6243;51.244;6.774;2024-01-11T11:59:47;40.50;;;24.60;;
12356;SDS011;6243;51.244;6.774;2024-01-11T12:02:15;37.83;;;23.17;;
12356;SDS011;6243;51.244;6.774;2024-01-11T12:04:47;37.50;;;24.57;;
12356;SDS011;6243;51.244;6.774;2024-01-11T12:07:12;39.20;;;23.67;;
12356;SDS011;6243;51.244;6.774;2024-01-11T12:09:38;37.13;;;24.67;;
12356;SDS011;6243;51.244;6.774;2024-01-11T12:12:04;34.03;;;21.87;;
12356;SDS011;6243;51.244;6.774;2024-01-11T12:14:30;32.97;;;22.30;;
12356;SDS011;6243;51.244;6.774;2024-01-11T12:16:56;34.10;;;21.20;;
12356;SDS011;6243;51.244;6.774;2024-01-11T12:19:22;31.77;;;20.93;;
12356;SDS011;6243;51.244;6.774;2024-01-11T12:21:50;35.83;;;21.83;;
12356;SDS011;6243;51.244;6.774;2024-01-11T12:24:16;33.83;;;22.20;;
12356;SDS011;6243;51.244;6.774;2024-01-11T12:26:42;34.80;;;22.40;;
12356;SDS011;6243;51.244;6.774;2024-01-11T12:29:07;36.13;;;22.40;;
12356;SDS011;6243;51.244;6.774;2024-01-11T12:31:33;35.73;;;23.33;;
12356;SDS011;6243;51.244;6.774;2024-01-11T12:33:59;34.67;;;22.30;;
12356;SDS011;6243;51.244;6.774;2024-01-11T12:36:25;38.73;;;22.37;;
12356;SDS011;6243;51.244;6.774;2024-01-11T12:38:52;36.67;;;22.20;;
12356;SDS011;6243;51.244;6.774;2024-01-11T12:41:17;34.53;;;22.87;;
12356;SDS011;6243;51.244;6.774;2024-01-11T12:43:43;34.40;;;20.73;;
12356;SDS011;6243;51.244;6.774;2024-01-11T12:46:09;33.70;;;20.97;;
12356;SDS011;6243;51.244;6.774;2024-01-11T12:48:35;36.33;;;21.77;;
12356;SDS011;6243;51.244;6.774;2024-01-11T12:51:00;33.03;;;21.13;;
12356;SDS011;6243;51.244;6.774;2024-01-11T12:53:26;35.13;;;21.63;;
12356;SDS011;6243;51.244;6.774;2024-01-11T12:56:03;35.40;;;20.87;;
12356;SDS011;6243;51.244;6.774;2024-01-11T12:58:29;36.23;;;20.43;;
12356;SDS011;6243;51.244;6.774;2024-01-11T13:00:55;32.43;;;20.17;;
12356;SDS011;6243;51.244;6.774;2024-01-11T13:03:20;34.73;;;20.77;;
12356;SDS011;6243;51.244;6.774;2024-01-11T13:05:46;32.83;;;19.87;;
12356;SDS011;6243;51.244;6.774;2024-01-11T13:08:12;33.57;;;20.30;;
12356;SDS011;6243;51.244;6.774;2024-01-11T13:10:37;31.03;;;20.07;;
12356;SDS011;6243;51.244;6.774;2024-01-11T13:13:04;33.37;;;19.47;;
12356;SDS011;6243;51.244;6.774;2024-01-11T13:15:30;29.87;;;18.57;;
12356;SDS011;6243;51.244;6.774;2024-01-11T13:17:55;31.20;;;18.70;;
12356;SDS011;6243;51.244;6.774;2024-01-11T13:20:21;28.80;;;19.00;;
12356;SDS011;6243;51.244;6.774;2024-01-11T13:22:47;30.33;;;18.73;;
12356;SDS011;6243;51.244;6.774;2024-01-11T13:25:12;30.93;;;18.17;;
12356;SDS011;6243;51.244;6.774;2024-01-11T13:27:38;27.57;;;17.73;;
12356;SDS011;6243;51.244;6.774;2024-01-11T13:30:05;30.30;;;17.77;;
12356;SDS011;6243;51.244;6.774;2024-01-11T13:32:31;23.77;;;16.20;;
12356;SDS011;6243;51.244;6.774;2024-01-11T13:34:57;24.60;;;16.80;;
12356;SDS011;6243;51.244;6.774;2024-01-11T13:37:22;27.70;;;17.33;;
12356;SDS011;6243;51.244;6.774;2024-01-11T13:39:48;27.23;;;18.00;;
12356;SDS011;6243;51.244;6.774;2024-01-11T13:42:14;33.27;;;18.23;;
12356;SDS011;6243;51.244;6.774;2024-01-11T13:44:41;28.30;;;17.13;;
12356;SDS011;6243;51.244;6.774;2024-01-11T13:47:08;25.73;;;15.80;;
12356;SDS011;6243;51.244;6.774;2024-01-11T13:49:34;31.03;;;18.60;;
12356;SDS011;6243;51.244;6.774;2024-01-11T13:51:59;27.77;;;18.77;;
12356;SDS011;6243;51.244;6.774;2024-01-11T13:54:25;30.07;;;18.37;;
12356;SDS011;6243;51.244;6.774;2024-01-11T13:56:51;28.77;;;18.27;;
12356;SDS011;6243;51.244;6.774;2024-01-11T13:59:16;29.40;;;18.13;;
12356;SDS011;6243;51.244;6.774;2024-01-11T14:01:42;27.57;;;18.17;;
12356;SDS011;6243;51.244;6.774;2024-01-11T14:04:09;28.50;;;18.50;;
12356;SDS011;6243;51.244;6.774;2024-01-11T14:06:35;30.37;;;17.77;;
12356;SDS011;6243;51.244;6.774;2024-01-11T14:09:00;25.67;;;18.07;;
12356;SDS011;6243;51.244;6.774;2024-01-11T14:11:26;29.63;;;18.93;;
12356;SDS011;6243;51.244;6.774;2024-01-11T14:13:51;27.53;;;17.63;;
12356;SDS011;6243;51.244;6.774;2024-01-11T14:16:17;27.90;;;17.90;;
12356;SDS011;6243;51.244;6.774;2024-01-11T14:18:43;30.57;;;18.57;;
12356;SDS011;6243;51.244;6.774;2024-01-11T14:21:10;25.17;;;17.63;;
12356;SDS011;6243;51.244;6.774;2024-01-11T14:23:35;26.73;;;17.33;;
12356;SDS011;6243;51.244;6.774;2024-01-11T14:26:01;26.87;;;18.00;;